createdAt,value
2019-02-05T00:00:35.835Z,101624.80
2019-02-05T00:05:39.403Z,101625.52
2019-02-05T00:10:42.363Z,101628.89
2019-02-05T00:15:44.862Z,101635.95
2019-02-05T00:20:48.434Z,101626.64
2019-02-05T00:25:52.056Z,101625.88
2019-02-05T00:30:55.633Z,101626.28
2019-02-05T00:35:59.109Z,101634.35
2019-02-05T00:41:03.348Z,101635.30
2019-02-05T00:46:06.211Z,101640.80
2019-02-05T00:51:09.807Z,101640.21
2019-02-05T00:56:17.631Z,101635.68
2019-02-05T01:01:17.827Z,101636.64
2019-02-05T01:06:21.300Z,101640.50
2019-02-05T01:11:24.667Z,101632.55
2019-02-05T01:16:27.245Z,101635.32
2019-02-05T01:21:30.473Z,101638.21
2019-02-05T01:26:34.058Z,101641.30
2019-02-05T01:31:37.786Z,101631.46
2019-02-05T01:36:41.034Z,101642.80
2019-02-05T01:41:44.509Z,101628.73
2019-02-05T01:46:47.970Z,101632.83
2019-02-05T01:51:50.902Z,101636.73
2019-02-05T01:56:54.496Z,101632.15
2019-02-05T02:01:57.758Z,101643.80
2019-02-05T02:07:01.209Z,101637.20
2019-02-05T02:12:04.795Z,101649.06
2019-02-05T02:17:08.316Z,101637.01
2019-02-05T02:22:11.509Z,101646.20
2019-02-05T02:27:15.079Z,101638.25
2019-02-05T02:32:18.262Z,101649.22
2019-02-05T02:37:20.769Z,101636.31
2019-02-05T02:42:23.976Z,101638.08
2019-02-05T02:47:27.867Z,101647.07
2019-02-05T02:52:31.233Z,101639.72
2019-02-05T02:57:34.416Z,101646.00
2019-02-05T03:02:37.295Z,101644.09
2019-02-05T03:07:40.208Z,101654.06
2019-02-05T03:12:43.852Z,101659.84
2019-02-05T03:17:46.649Z,101664.17
2019-02-05T03:22:49.851Z,101664.17
2019-02-05T03:27:54.278Z,101657.34
2019-02-05T03:32:57.667Z,101656.34
2019-02-05T03:38:01.145Z,101648.48
2019-02-05T03:43:04.849Z,101642.77
2019-02-05T03:48:08.071Z,101653.77
2019-02-05T03:53:11.953Z,101654.77
2019-02-05T03:58:42.948Z,101657.11
2019-02-05T04:04:45.656Z,101670.83
2019-02-05T04:10:27.167Z,101663.47
2019-02-05T04:16:39.387Z,101670.45
2019-02-05T04:22:19.387Z,101671.22
2019-02-05T04:27:43.864Z,101673.70
2019-02-05T04:33:23.741Z,101677.62
2019-02-05T04:38:46.103Z,101682.43
2019-02-05T04:44:42.453Z,101668.62
2019-02-05T04:50:24.017Z,101669.62
2019-02-05T04:56:14.722Z,101669.45
2019-02-05T05:02:02.342Z,101677.20
2019-02-05T05:07:24.937Z,101681.31
2019-02-05T05:12:31.786Z,101683.92
2019-02-05T05:17:34.602Z,101696.97
2019-02-05T05:22:37.876Z,101706.65
2019-02-05T05:27:41.976Z,101708.44
2019-02-05T05:32:44.505Z,101698.70
2019-02-05T05:37:47.747Z,101708.78
2019-02-05T05:42:50.960Z,101711.62
2019-02-05T05:47:54.208Z,101710.70
2019-02-05T05:52:57.137Z,101720.86
2019-02-05T05:58:00.684Z,101729.58
2019-02-05T06:03:03.649Z,101726.70
2019-02-05T06:08:16.086Z,101730.22
2019-02-05T06:13:19.504Z,101736.55
2019-02-05T06:18:22.748Z,101737.30
2019-02-05T06:23:26.059Z,101738.95
2019-02-05T06:28:34.698Z,101736.47
2019-02-05T06:33:33.976Z,101739.97
2019-02-05T06:38:37.105Z,101750.97
2019-02-05T06:43:40.615Z,101743.34
2019-02-05T06:48:43.126Z,101757.82
2019-02-05T06:53:45.615Z,101761.53
2019-02-05T06:58:48.811Z,101767.70
2019-02-05T07:03:52.352Z,101774.52
2019-02-05T07:08:55.592Z,101777.41
2019-02-05T07:13:59.273Z,101789.92
2019-02-05T07:19:02.526Z,101798.48
2019-02-05T07:24:05.934Z,101802.38
2019-02-05T07:29:09.356Z,101810.98
2019-02-05T07:34:12.666Z,101811.74
2019-02-05T07:39:15.668Z,101808.28
2019-02-05T07:44:18.530Z,101821.62
2019-02-05T07:49:21.746Z,101818.47
2019-02-05T07:54:23.901Z,101830.26
2019-02-05T07:59:26.856Z,101836.84
2019-02-05T08:04:30.435Z,101840.67
2019-02-05T08:09:35.030Z,101844.22
2019-02-05T08:14:39.571Z,101845.84
2019-02-05T08:19:42.228Z,101851.17
2019-02-05T08:24:45.135Z,101872.02
2019-02-05T08:29:48.383Z,101859.56
2019-02-05T08:34:52.040Z,101869.03
2019-02-05T08:39:55.684Z,101870.43
2019-02-05T08:44:59.130Z,101883.81
2019-02-05T08:50:02.439Z,101882.10
2019-02-05T08:55:07.182Z,101893.80
2019-02-05T09:00:14.448Z,101881.61
2019-02-05T09:05:20.527Z,101887.73
2019-02-05T09:10:28.644Z,101889.24
2019-02-05T09:15:32.002Z,101893.86
2019-02-05T09:20:34.923Z,101911.61
2019-02-05T09:25:38.488Z,101911.52
2019-02-05T09:30:41.808Z,101931.08
2019-02-05T09:35:45.080Z,101912.38
2019-02-05T09:40:48.785Z,101915.61
2019-02-05T09:45:52.060Z,101918.13
2019-02-05T09:50:55.688Z,101919.00
2019-02-05T09:55:58.724Z,101929.27
2019-02-05T10:01:02.140Z,101925.28
2019-02-05T10:06:05.465Z,101916.02
2019-02-05T10:11:08.454Z,101935.23
2019-02-05T10:16:10.998Z,101956.12
2019-02-05T10:21:14.282Z,101958.87
2019-02-05T10:26:17.163Z,101952.89
2019-02-05T10:31:20.476Z,101947.52
2019-02-05T10:36:24.076Z,101949.78
2019-02-05T10:41:27.290Z,101953.02
2019-02-05T10:46:30.557Z,101960.40
2019-02-05T10:51:33.926Z,101952.88
2019-02-05T10:56:37.447Z,101958.66
2019-02-05T11:01:40.044Z,101961.64
2019-02-05T11:06:44.501Z,101967.27
2019-02-05T11:11:50.198Z,101968.89
2019-02-05T11:16:54.474Z,101964.66
2019-02-05T11:21:57.804Z,101976.53
2019-02-05T11:27:01.109Z,101967.78
2019-02-05T11:32:04.565Z,101985.91
2019-02-05T11:37:07.942Z,101975.54
2019-02-05T11:42:10.481Z,101979.17
2019-02-05T11:47:13.801Z,101981.04
2019-02-05T11:52:17.054Z,101966.78
2019-02-05T11:57:20.000Z,101976.53
2019-02-05T12:02:23.111Z,101979.41
2019-02-05T12:07:26.074Z,101972.41
2019-02-05T12:12:28.690Z,101973.15
2019-02-05T12:17:32.368Z,101966.66
2019-02-05T12:22:35.719Z,101975.27
2019-02-05T12:27:39.006Z,101988.67
2019-02-05T12:32:42.589Z,101970.64
2019-02-05T12:37:45.181Z,101981.66
2019-02-05T12:42:48.529Z,101977.66
2019-02-05T12:47:51.814Z,101972.77
2019-02-05T12:52:55.594Z,101971.28
2019-02-05T12:57:59.977Z,101971.91
2019-02-05T13:03:03.548Z,101970.01
2019-02-05T13:08:07.584Z,101970.25
2019-02-05T13:13:11.015Z,101979.64
2019-02-05T13:18:14.396Z,101977.61
2019-02-05T13:23:17.656Z,101979.86
2019-02-05T13:28:21.020Z,101970.84
2019-02-05T13:33:24.318Z,101977.50
2019-02-05T13:38:28.010Z,101978.22
2019-02-05T13:43:31.131Z,101977.11
2019-02-05T13:48:34.478Z,101991.23
2019-02-05T13:53:37.886Z,101982.98
2019-02-05T13:58:41.530Z,101986.40
2019-02-05T14:03:46.041Z,101993.13
2019-02-05T14:08:49.641Z,101993.48
2019-02-05T14:13:52.633Z,102001.50
2019-02-05T14:18:55.938Z,102006.39
2019-02-05T14:23:59.435Z,102008.02
2019-02-05T14:29:02.393Z,102007.77
2019-02-05T14:34:06.241Z,102017.02
2019-02-05T14:39:11.003Z,102020.30
2019-02-05T14:44:14.355Z,102036.04
2019-02-05T14:49:17.592Z,102035.41
2019-02-05T14:54:20.213Z,102040.80
2019-02-05T14:59:23.099Z,102042.44
2019-02-05T15:04:26.738Z,102040.81
2019-02-05T15:09:29.727Z,102044.56
2019-02-05T15:14:32.965Z,102058.82
2019-02-05T15:19:36.321Z,102052.55
2019-02-05T15:24:40.987Z,102044.18
2019-02-05T15:29:43.943Z,102051.94
2019-02-05T15:34:46.878Z,102052.31
2019-02-05T15:39:50.299Z,102064.94
2019-02-05T15:44:53.917Z,102056.69
2019-02-05T15:50:05.846Z,102055.03
2019-02-05T15:55:02.234Z,102066.30
2019-02-05T16:00:08.064Z,102075.54
2019-02-05T16:05:12.321Z,102080.77
2019-02-05T16:10:15.755Z,102080.91
2019-02-05T16:15:19.120Z,102076.28
2019-02-05T16:20:22.317Z,102081.27
2019-02-05T16:25:25.566Z,102081.48
2019-02-05T16:30:28.826Z,102086.88
2019-02-05T16:35:32.135Z,102095.27
2019-02-05T16:40:35.487Z,102091.78
2019-02-05T16:45:38.671Z,102098.55
2019-02-05T16:50:43.618Z,102109.02
2019-02-05T16:55:47.716Z,102114.89
2019-02-05T17:00:53.398Z,102112.13
2019-02-05T17:05:57.185Z,102114.78
2019-02-05T17:11:00.225Z,102123.72
2019-02-05T17:16:04.061Z,102123.62
2019-02-05T17:21:06.898Z,102135.51
2019-02-05T17:26:10.328Z,102129.53
2019-02-05T17:31:13.956Z,102131.09
2019-02-05T17:36:17.028Z,102138.34
2019-02-05T17:41:20.733Z,102144.03
2019-02-05T17:46:25.808Z,102154.67
2019-02-05T17:51:29.293Z,102161.08
2019-02-05T17:56:32.641Z,102158.98
2019-02-05T18:01:36.426Z,102166.28
2019-02-05T18:06:39.699Z,102170.07
2019-02-05T18:11:43.568Z,102186.76
2019-02-05T18:16:47.343Z,102166.27
2019-02-05T18:21:51.966Z,102169.45
2019-02-05T18:26:57.287Z,102175.33
2019-02-05T18:32:02.369Z,102188.17
2019-02-05T18:37:06.419Z,102182.78
2019-02-05T18:42:12.103Z,102183.11
2019-02-05T18:47:17.095Z,102189.52
2019-02-05T18:52:23.906Z,102186.30
2019-02-05T18:57:29.257Z,102198.90
2019-02-05T19:02:33.867Z,102192.89
2019-02-05T19:07:42.010Z,102183.94
2019-02-05T19:12:48.284Z,102186.91
2019-02-05T19:17:54.527Z,102190.63
2019-02-05T19:22:59.786Z,102188.55
2019-02-05T19:28:04.457Z,102192.37
2019-02-05T19:33:09.247Z,102187.85
2019-02-05T19:38:16.108Z,102195.11
2019-02-05T19:43:23.396Z,102190.16
2019-02-05T19:48:35.040Z,102186.33
2019-02-05T19:53:42.857Z,102186.80
2019-02-05T19:58:49.961Z,102181.80
2019-02-05T20:03:56.471Z,102189.71
2019-02-05T20:09:04.364Z,102199.91
2019-02-05T20:14:09.369Z,102202.59
2019-02-05T20:19:14.489Z,102214.83
2019-02-05T20:24:19.709Z,102215.63
2019-02-05T20:29:25.142Z,102229.50
2019-02-05T20:34:33.662Z,102219.10
2019-02-05T20:39:40.821Z,102215.75
2019-02-05T20:44:47.281Z,102221.83
2019-02-05T20:49:54.366Z,102207.78
2019-02-05T20:55:00.953Z,102220.02
2019-02-05T21:00:14.937Z,102214.43
2019-02-05T21:05:20.106Z,102216.18
2019-02-05T21:10:27.424Z,102214.33
2019-02-05T21:15:31.987Z,102207.16
2019-02-05T21:20:36.743Z,102216.05
2019-02-05T21:25:41.566Z,102219.14
2019-02-05T21:30:46.474Z,102224.92
2019-02-05T21:35:50.066Z,102218.53
2019-02-05T21:40:54.499Z,102212.91
2019-02-05T21:46:00.970Z,102223.78
2019-02-05T21:51:05.099Z,102226.87
2019-02-05T21:56:08.435Z,102232.70
2019-02-05T22:01:14.527Z,102222.05
2019-02-05T22:06:17.432Z,102231.22
2019-02-05T22:11:20.982Z,102237.33
2019-02-05T22:16:24.890Z,102228.30
2019-02-05T22:21:27.843Z,102216.65
2019-02-05T22:26:31.463Z,102218.86
2019-02-05T22:31:34.791Z,102215.80
2019-02-05T22:36:38.031Z,102220.67
2019-02-05T22:41:40.879Z,102219.80
2019-02-05T22:46:43.922Z,102223.18
2019-02-05T22:51:46.879Z,102228.72
2019-02-05T22:56:49.898Z,102228.12
2019-02-05T23:01:56.906Z,102220.50
2019-02-05T23:07:04.214Z,102220.69
2019-02-05T23:12:13.863Z,102214.57
2019-02-05T23:17:17.212Z,102204.63
2019-02-05T23:22:21.300Z,102212.41
2019-02-05T23:27:24.690Z,102215.91
2019-02-05T23:32:28.465Z,102209.43
2019-02-05T23:37:31.436Z,102206.75
2019-02-05T23:42:34.363Z,102221.05
2019-02-05T23:47:38.598Z,102212.36
2019-02-05T23:52:42.015Z,102218.77
2019-02-05T23:57:45.347Z,102221.59
